sensor_id;sensor_type;location;lat;lon;timestamp;temperature;humidity
17726;DHT22;8983;53.156;17.960;2023-04-19T00:01:48;8.40;95.80
17726;DHT22;8983;53.156;17.960;2023-04-19T00:04:16;8.40;96.00
17726;DHT22;8983;53.156;17.960;2023-04-19T00:06:45;8.30;96.10
17726;DHT22;8983;53.156;17.960;2023-04-19T00:09:13;8.20;96.30
17726;DHT22;8983;53.156;17.960;2023-04-19T00:11:42;8.10;96.50
17726;DHT22;8983;53.156;17.960;2023-04-19T00:14:10;8.00;96.60
17726;DHT22;8983;53.156;17.960;2023-04-19T00:16:39;7.90;96.80
17726;DHT22;8983;53.156;17.960;2023-04-19T00:19:07;7.90;97.30
17726;DHT22;8983;53.156;17.960;2023-04-19T00:21:36;7.80;97.10
17726;DHT22;8983;53.156;17.960;2023-04-19T00:24:04;7.80;97.20
17726;DHT22;8983;53.156;17.960;2023-04-19T00:26:33;7.70;97.30
17726;DHT22;8983;53.156;17.960;2023-04-19T00:29:02;7.70;97.40
17726;DHT22;8983;53.156;17.960;2023-04-19T00:31:30;7.70;97.60
17726;DHT22;8983;53.156;17.960;2023-04-19T00:33:58;7.60;97.70
17726;DHT22;8983;53.156;17.960;2023-04-19T00:36:28;7.60;97.80
17726;DHT22;8983;53.156;17.960;2023-04-19T00:38:56;7.60;97.90
17726;DHT22;8983;53.156;17.960;2023-04-19T00:41:24;7.50;98.00
17726;DHT22;8983;53.156;17.960;2023-04-19T00:43:52;7.40;98.10
17726;DHT22;8983;53.156;17.960;2023-04-19T00:46:22;7.40;98.30
17726;DHT22;8983;53.156;17.960;2023-04-19T00:48:50;7.30;98.40
17726;DHT22;8983;53.156;17.960;2023-04-19T00:51:19;7.30;98.50
17726;DHT22;8983;53.156;17.960;2023-04-19T00:53:47;7.20;98.60
17726;DHT22;8983;53.156;17.960;2023-04-19T00:56:15;7.20;98.80
17726;DHT22;8983;53.156;17.960;2023-04-19T00:58:44;7.10;98.90
17726;DHT22;8983;53.156;17.960;2023-04-19T01:01:13;7.00;99.00
17726;DHT22;8983;53.156;17.960;2023-04-19T01:03:43;7.00;99.20
17726;DHT22;8983;53.156;17.960;2023-04-19T01:06:11;6.90;99.40
17726;DHT22;8983;53.156;17.960;2023-04-19T01:08:40;6.90;99.50
17726;DHT22;8983;53.156;17.960;2023-04-19T01:11:08;7.00;99.70
17726;DHT22;8983;53.156;17.960;2023-04-19T01:13:36;6.70;99.80
17726;DHT22;8983;53.156;17.960;2023-04-19T01:16:05;6.70;99.90
17726;DHT22;8983;53.156;17.960;2023-04-19T01:18:34;6.70;99.90
17726;DHT22;8983;53.156;17.960;2023-04-19T01:21:05;6.70;99.90
17726;DHT22;8983;53.156;17.960;2023-04-19T01:23:35;6.70;99.90
17726;DHT22;8983;53.156;17.960;2023-04-19T01:26:05;6.70;99.90
17726;DHT22;8983;53.156;17.960;2023-04-19T01:28:33;6.60;99.90
17726;DHT22;8983;53.156;17.960;2023-04-19T01:31:01;6.60;99.90
17726;DHT22;8983;53.156;17.960;2023-04-19T01:33:29;6.60;99.90
17726;DHT22;8983;53.156;17.960;2023-04-19T01:35:57;6.60;99.90
17726;DHT22;8983;53.156;17.960;2023-04-19T01:38:25;6.50;99.90
17726;DHT22;8983;53.156;17.960;2023-04-19T01:40:55;6.50;99.90
17726;DHT22;8983;53.156;17.960;2023-04-19T01:43:23;6.50;99.90
17726;DHT22;8983;53.156;17.960;2023-04-19T01:45:51;6.50;99.90
17726;DHT22;8983;53.156;17.960;2023-04-19T01:48:19;6.40;99.90
17726;DHT22;8983;53.156;17.960;2023-04-19T01:50:47;6.40;99.90
17726;DHT22;8983;53.156;17.960;2023-04-19T01:53:15;6.40;99.90
17726;DHT22;8983;53.156;17.960;2023-04-19T01:55:43;6.40;99.90
17726;DHT22;8983;53.156;17.960;2023-04-19T01:58:13;6.40;99.90
17726;DHT22;8983;53.156;17.960;2023-04-19T02:00:41;6.40;99.90
17726;DHT22;8983;53.156;17.960;2023-04-19T02:03:09;6.40;99.90
17726;DHT22;8983;53.156;17.960;2023-04-19T02:05:38;6.40;99.90
17726;DHT22;8983;53.156;17.960;2023-04-19T02:08:06;6.50;99.90
17726;DHT22;8983;53.156;17.960;2023-04-19T02:10:34;6.50;99.90
17726;DHT22;8983;53.156;17.960;2023-04-19T02:13:02;6.50;99.90
17726;DHT22;8983;53.156;17.960;2023-04-19T02:15:32;6.40;99.90
17726;DHT22;8983;53.156;17.960;2023-04-19T02:18:00;6.50;99.90
17726;DHT22;8983;53.156;17.960;2023-04-19T02:20:28;6.50;99.90
17726;DHT22;8983;53.156;17.960;2023-04-19T02:22:56;6.60;99.90
17726;DHT22;8983;53.156;17.960;2023-04-19T02:25:25;6.50;99.90
17726;DHT22;8983;53.156;17.960;2023-04-19T02:27:53;6.60;99.90
17726;DHT22;8983;53.156;17.960;2023-04-19T02:30:21;6.70;99.90
17726;DHT22;8983;53.156;17.960;2023-04-19T02:32:50;6.60;99.90
17726;DHT22;8983;53.156;17.960;2023-04-19T02:35:20;6.60;99.90
17726;DHT22;8983;53.156;17.960;2023-04-19T02:37:48;6.60;99.90
17726;DHT22;8983;53.156;17.960;2023-04-19T02:40:17;6.60;99.90
17726;DHT22;8983;53.156;17.960;2023-04-19T02:42:45;6.70;99.90
17726;DHT22;8983;53.156;17.960;2023-04-19T02:45:13;6.80;99.90
17726;DHT22;8983;53.156;17.960;2023-04-19T02:47:41;6.80;99.90
17726;DHT22;8983;53.156;17.960;2023-04-19T02:50:11;6.90;99.90
17726;DHT22;8983;53.156;17.960;2023-04-19T02:52:39;6.90;99.90
17726;DHT22;8983;53.156;17.960;2023-04-19T02:55:08;6.90;99.90
17726;DHT22;8983;53.156;17.960;2023-04-19T02:57:36;7.00;99.90
17726;DHT22;8983;53.156;17.960;2023-04-19T03:00:05;7.00;99.90
17726;DHT22;8983;53.156;17.960;2023-04-19T03:02:36;7.00;99.90
17726;DHT22;8983;53.156;17.960;2023-04-19T03:05:05;6.90;99.90
17726;DHT22;8983;53.156;17.960;2023-04-19T03:07:35;6.90;99.90
17726;DHT22;8983;53.156;17.960;2023-04-19T03:10:04;6.80;99.90
17726;DHT22;8983;53.156;17.960;2023-04-19T03:12:33;6.80;99.90
17726;DHT22;8983;53.156;17.960;2023-04-19T03:15:01;6.80;99.90
17726;DHT22;8983;53.156;17.960;2023-04-19T03:17:30;6.90;99.90
17726;DHT22;8983;53.156;17.960;2023-04-19T03:19:58;6.90;99.90
17726;DHT22;8983;53.156;17.960;2023-04-19T03:22:26;6.90;99.90
17726;DHT22;8983;53.156;17.960;2023-04-19T03:24:55;6.90;99.90
17726;DHT22;8983;53.156;17.960;2023-04-19T03:27:23;6.80;99.90
17726;DHT22;8983;53.156;17.960;2023-04-19T03:29:51;6.80;99.90
17726;DHT22;8983;53.156;17.960;2023-04-19T03:32:19;6.80;99.90
17726;DHT22;8983;53.156;17.960;2023-04-19T03:34:48;6.80;99.90
17726;DHT22;8983;53.156;17.960;2023-04-19T03:37:16;6.80;99.90
17726;DHT22;8983;53.156;17.960;2023-04-19T03:39:44;6.80;99.90
17726;DHT22;8983;53.156;17.960;2023-04-19T03:42:13;6.80;99.90
17726;DHT22;8983;53.156;17.960;2023-04-19T03:44:41;6.90;99.90
17726;DHT22;8983;53.156;17.960;2023-04-19T03:47:09;6.90;99.90
17726;DHT22;8983;53.156;17.960;2023-04-19T03:49:37;6.80;99.90
17726;DHT22;8983;53.156;17.960;2023-04-19T03:52:05;6.70;99.90
17726;DHT22;8983;53.156;17.960;2023-04-19T03:54:33;6.70;99.90
17726;DHT22;8983;53.156;17.960;2023-04-19T03:57:02;6.80;99.90
17726;DHT22;8983;53.156;17.960;2023-04-19T03:59:31;6.80;99.90
17726;DHT22;8983;53.156;17.960;2023-04-19T04:01:59;6.80;99.90
17726;DHT22;8983;53.156;17.960;2023-04-19T04:04:28;6.90;99.90
17726;DHT22;8983;53.156;17.960;2023-04-19T04:06:56;7.00;99.90
17726;DHT22;8983;53.156;17.960;2023-04-19T04:09:24;7.10;99.90
17726;DHT22;8983;53.156;17.960;2023-04-19T04:11:52;7.10;99.90
17726;DHT22;8983;53.156;17.960;2023-04-19T04:14:20;7.30;99.90
17726;DHT22;8983;53.156;17.960;2023-04-19T04:16:50;7.20;99.90
17726;DHT22;8983;53.156;17.960;2023-04-19T04:19:18;7.30;99.90
17726;DHT22;8983;53.156;17.960;2023-04-19T04:21:47;7.30;99.90
17726;DHT22;8983;53.156;17.960;2023-04-19T04:24:16;7.40;99.90
17726;DHT22;8983;53.156;17.960;2023-04-19T04:26:46;7.40;99.90
17726;DHT22;8983;53.156;17.960;2023-04-19T04:29:15;7.50;99.90
17726;DHT22;8983;53.156;17.960;2023-04-19T04:31:43;7.40;99.90
17726;DHT22;8983;53.156;17.960;2023-04-19T04:34:13;7.50;99.90
17726;DHT22;8983;53.156;17.960;2023-04-19T04:36:42;7.50;99.90
17726;DHT22;8983;53.156;17.960;2023-04-19T04:39:10;7.40;99.90
17726;DHT22;8983;53.156;17.960;2023-04-19T04:41:38;7.40;99.90
17726;DHT22;8983;53.156;17.960;2023-04-19T04:44:08;7.40;99.90
17726;DHT22;8983;53.156;17.960;2023-04-19T04:46:49;7.20;99.90
17726;DHT22;8983;53.156;17.960;2023-04-19T04:49:18;7.20;99.90
17726;DHT22;8983;53.156;17.960;2023-04-19T04:51:46;7.40;99.90
17726;DHT22;8983;53.156;17.960;2023-04-19T04:54:14;7.20;99.90
17726;DHT22;8983;53.156;17.960;2023-04-19T04:56:43;7.20;99.90
17726;DHT22;8983;53.156;17.960;2023-04-19T04:59:11;7.20;99.90
17726;DHT22;8983;53.156;17.960;2023-04-19T05:01:39;7.10;99.90
17726;DHT22;8983;53.156;17.960;2023-04-19T05:04:07;7.10;99.90
17726;DHT22;8983;53.156;17.960;2023-04-19T05:06:37;7.20;99.90
17726;DHT22;8983;53.156;17.960;2023-04-19T05:09:06;7.20;99.90
17726;DHT22;8983;53.156;17.960;2023-04-19T05:11:34;7.20;99.90
17726;DHT22;8983;53.156;17.960;2023-04-19T05:14:03;7.20;99.90
17726;DHT22;8983;53.156;17.960;2023-04-19T05:16:31;7.30;99.90
17726;DHT22;8983;53.156;17.960;2023-04-19T05:19:00;7.30;99.90
17726;DHT22;8983;53.156;17.960;2023-04-19T05:21:28;7.30;99.90
17726;DHT22;8983;53.156;17.960;2023-04-19T05:23:57;7.40;99.90
17726;DHT22;8983;53.156;17.960;2023-04-19T05:26:26;7.40;99.90
17726;DHT22;8983;53.156;17.960;2023-04-19T05:28:54;7.40;99.90
17726;DHT22;8983;53.156;17.960;2023-04-19T05:31:22;7.50;99.90
17726;DHT22;8983;53.156;17.960;2023-04-19T05:33:50;7.50;99.90
17726;DHT22;8983;53.156;17.960;2023-04-19T05:36:18;7.50;99.90
17726;DHT22;8983;53.156;17.960;2023-04-19T05:38:47;7.60;99.90
17726;DHT22;8983;53.156;17.960;2023-04-19T05:41:16;7.50;99.90
17726;DHT22;8983;53.156;17.960;2023-04-19T05:43:44;7.50;99.90
17726;DHT22;8983;53.156;17.960;2023-04-19T05:46:12;7.50;99.90
17726;DHT22;8983;53.156;17.960;2023-04-19T05:48:40;7.50;99.90
17726;DHT22;8983;53.156;17.960;2023-04-19T05:51:08;7.50;99.90
17726;DHT22;8983;53.156;17.960;2023-04-19T05:53:37;7.50;99.90
17726;DHT22;8983;53.156;17.960;2023-04-19T05:56:05;7.50;99.90
17726;DHT22;8983;53.156;17.960;2023-04-19T05:58:35;7.50;99.90
17726;DHT22;8983;53.156;17.960;2023-04-19T06:01:03;7.50;99.90
17726;DHT22;8983;53.156;17.960;2023-04-19T06:03:31;7.50;99.90
17726;DHT22;8983;53.156;17.960;2023-04-19T06:06:00;7.50;99.90
17726;DHT22;8983;53.156;17.960;2023-04-19T06:08:28;7.50;99.90
17726;DHT22;8983;53.156;17.960;2023-04-19T06:10:58;7.40;99.90
17726;DHT22;8983;53.156;17.960;2023-04-19T06:13:42;7.40;99.90
17726;DHT22;8983;53.156;17.960;2023-04-19T06:16:10;7.30;99.90
17726;DHT22;8983;53.156;17.960;2023-04-19T06:18:39;7.30;99.90
17726;DHT22;8983;53.156;17.960;2023-04-19T06:21:08;7.30;99.90
17726;DHT22;8983;53.156;17.960;2023-04-19T06:23:37;7.40;99.90
17726;DHT22;8983;53.156;17.960;2023-04-19T06:26:05;7.40;99.90
17726;DHT22;8983;53.156;17.960;2023-04-19T06:28:33;7.40;99.90
17726;DHT22;8983;53.156;17.960;2023-04-19T06:31:03;7.50;99.90
17726;DHT22;8983;53.156;17.960;2023-04-19T06:33:32;7.50;99.90
17726;DHT22;8983;53.156;17.960;2023-04-19T06:36:00;7.60;99.90
17726;DHT22;8983;53.156;17.960;2023-04-19T06:38:28;7.60;99.90
17726;DHT22;8983;53.156;17.960;2023-04-19T06:40:56;7.60;99.90
17726;DHT22;8983;53.156;17.960;2023-04-19T06:43:24;7.60;99.90
17726;DHT22;8983;53.156;17.960;2023-04-19T06:45:57;7.60;99.90
17726;DHT22;8983;53.156;17.960;2023-04-19T06:48:26;7.60;99.90
17726;DHT22;8983;53.156;17.960;2023-04-19T06:50:55;7.70;99.90
17726;DHT22;8983;53.156;17.960;2023-04-19T06:53:23;7.80;99.90
17726;DHT22;8983;53.156;17.960;2023-04-19T06:55:57;7.60;99.90
17726;DHT22;8983;53.156;17.960;2023-04-19T06:58:27;7.60;99.90
17726;DHT22;8983;53.156;17.960;2023-04-19T07:00:55;7.60;99.90
17726;DHT22;8983;53.156;17.960;2023-04-19T07:03:23;7.60;99.90
17726;DHT22;8983;53.156;17.960;2023-04-19T07:05:53;7.50;99.90
17726;DHT22;8983;53.156;17.960;2023-04-19T07:08:22;7.50;99.90
17726;DHT22;8983;53.156;17.960;2023-04-19T07:10:57;7.50;99.90
17726;DHT22;8983;53.156;17.960;2023-04-19T07:13:25;7.50;99.90
17726;DHT22;8983;53.156;17.960;2023-04-19T07:15:54;7.50;99.90
17726;DHT22;8983;53.156;17.960;2023-04-19T07:18:22;7.50;99.90
17726;DHT22;8983;53.156;17.960;2023-04-19T07:20:52;7.50;99.90
17726;DHT22;8983;53.156;17.960;2023-04-19T07:23:20;7.50;99.90
17726;DHT22;8983;53.156;17.960;2023-04-19T07:25:48;7.60;99.90
17726;DHT22;8983;53.156;17.960;2023-04-19T07:28:16;7.60;99.90
17726;DHT22;8983;53.156;17.960;2023-04-19T07:30:44;7.70;99.90
17726;DHT22;8983;53.156;17.960;2023-04-19T07:33:12;7.70;99.90
17726;DHT22;8983;53.156;17.960;2023-04-19T07:35:40;7.70;99.90
17726;DHT22;8983;53.156;17.960;2023-04-19T07:38:10;7.80;99.90
17726;DHT22;8983;53.156;17.960;2023-04-19T07:40:38;8.00;99.90
17726;DHT22;8983;53.156;17.960;2023-04-19T07:43:06;7.90;99.90
17726;DHT22;8983;53.156;17.960;2023-04-19T07:45:34;7.90;99.90
17726;DHT22;8983;53.156;17.960;2023-04-19T07:48:02;8.00;99.90
17726;DHT22;8983;53.156;17.960;2023-04-19T07:50:30;8.00;99.90
17726;DHT22;8983;53.156;17.960;2023-04-19T07:52:58;8.00;99.90
17726;DHT22;8983;53.156;17.960;2023-04-19T07:55:28;8.10;99.90
17726;DHT22;8983;53.156;17.960;2023-04-19T07:57:56;8.00;99.90
17726;DHT22;8983;53.156;17.960;2023-04-19T08:00:24;8.00;99.90
17726;DHT22;8983;53.156;17.960;2023-04-19T08:02:52;8.00;99.90
17726;DHT22;8983;53.156;17.960;2023-04-19T08:05:21;8.00;99.90
17726;DHT22;8983;53.156;17.960;2023-04-19T08:07:51;8.00;99.90
17726;DHT22;8983;53.156;17.960;2023-04-19T08:10:19;7.90;99.90
17726;DHT22;8983;53.156;17.960;2023-04-19T08:12:49;8.00;99.90
17726;DHT22;8983;53.156;17.960;2023-04-19T08:15:32;8.00;99.90
17726;DHT22;8983;53.156;17.960;2023-04-19T08:18:03;8.00;99.90
17726;DHT22;8983;53.156;17.960;2023-04-19T08:20:31;7.90;99.90
17726;DHT22;8983;53.156;17.960;2023-04-19T08:22:59;8.00;99.90
17726;DHT22;8983;53.156;17.960;2023-04-19T08:25:40;8.00;99.90
17726;DHT22;8983;53.156;17.960;2023-04-19T08:28:09;8.10;99.90
17726;DHT22;8983;53.156;17.960;2023-04-19T08:30:39;8.20;99.90
17726;DHT22;8983;53.156;17.960;2023-04-19T08:33:07;8.20;99.90
17726;DHT22;8983;53.156;17.960;2023-04-19T08:35:37;8.20;99.90
17726;DHT22;8983;53.156;17.960;2023-04-19T08:38:06;8.30;99.90
17726;DHT22;8983;53.156;17.960;2023-04-19T08:40:34;8.20;99.90
17726;DHT22;8983;53.156;17.960;2023-04-19T08:43:04;8.30;99.90
17726;DHT22;8983;53.156;17.960;2023-04-19T08:45:35;8.20;99.90
17726;DHT22;8983;53.156;17.960;2023-04-19T08:48:04;8.30;99.90
17726;DHT22;8983;53.156;17.960;2023-04-19T08:50:32;8.30;99.90
17726;DHT22;8983;53.156;17.960;2023-04-19T08:53:18;8.40;99.90
17726;DHT22;8983;53.156;17.960;2023-04-19T08:55:51;8.40;99.90
17726;DHT22;8983;53.156;17.960;2023-04-19T08:58:43;8.40;99.90
17726;DHT22;8983;53.156;17.960;2023-04-19T09:01:15;8.40;99.90
17726;DHT22;8983;53.156;17.960;2023-04-19T09:03:48;8.50;99.90
17726;DHT22;8983;53.156;17.960;2023-04-19T09:06:34;8.50;99.90
17726;DHT22;8983;53.156;17.960;2023-04-19T09:09:19;8.50;99.90
17726;DHT22;8983;53.156;17.960;2023-04-19T09:11:50;8.60;99.90
17726;DHT22;8983;53.156;17.960;2023-04-19T09:14:20;8.60;99.90
17726;DHT22;8983;53.156;17.960;2023-04-19T09:16:50;8.70;99.90
17726;DHT22;8983;53.156;17.960;2023-04-19T09:19:18;8.70;99.90
17726;DHT22;8983;53.156;17.960;2023-04-19T09:21:51;8.90;99.90
17726;DHT22;8983;53.156;17.960;2023-04-19T09:24:36;8.80;99.90
17726;DHT22;8983;53.156;17.960;2023-04-19T09:27:26;8.90;99.90
17726;DHT22;8983;53.156;17.960;2023-04-19T09:29:55;8.90;99.90
17726;DHT22;8983;53.156;17.960;2023-04-19T09:32:25;8.90;99.90
17726;DHT22;8983;53.156;17.960;2023-04-19T09:34:54;9.00;99.90
17726;DHT22;8983;53.156;17.960;2023-04-19T09:37:23;9.00;99.90
17726;DHT22;8983;53.156;17.960;2023-04-19T09:40:24;9.00;99.90
17726;DHT22;8983;53.156;17.960;2023-04-19T09:42:54;9.10;99.90
17726;DHT22;8983;53.156;17.960;2023-04-19T09:45:25;9.10;99.90
17726;DHT22;8983;53.156;17.960;2023-04-19T09:48:02;9.00;99.90
17726;DHT22;8983;53.156;17.960;2023-04-19T09:50:30;9.10;99.90
17726;DHT22;8983;53.156;17.960;2023-04-19T09:53:08;8.90;99.90
17726;DHT22;8983;53.156;17.960;2023-04-19T09:55:38;9.10;99.90
17726;DHT22;8983;53.156;17.960;2023-04-19T09:58:25;9.10;99.90
17726;DHT22;8983;53.156;17.960;2023-04-19T10:01:03;9.10;99.90
17726;DHT22;8983;53.156;17.960;2023-04-19T10:03:44;9.10;99.90
17726;DHT22;8983;53.156;17.960;2023-04-19T10:06:15;9.20;99.90
17726;DHT22;8983;53.156;17.960;2023-04-19T10:09:03;9.20;99.90
17726;DHT22;8983;53.156;17.960;2023-04-19T10:11:33;9.10;99.90
17726;DHT22;8983;53.156;17.960;2023-04-19T10:14:13;9.20;99.90
17726;DHT22;8983;53.156;17.960;2023-04-19T10:16:45;9.20;99.90
17726;DHT22;8983;53.156;17.960;2023-04-19T10:19:17;9.10;99.90
17726;DHT22;8983;53.156;17.960;2023-04-19T10:21:46;9.30;99.90
17726;DHT22;8983;53.156;17.960;2023-04-19T10:24:15;9.20;99.90
17726;DHT22;8983;53.156;17.960;2023-04-19T10:27:09;9.20;99.90
17726;DHT22;8983;53.156;17.960;2023-04-19T10:29:54;9.30;99.90
17726;DHT22;8983;53.156;17.960;2023-04-19T10:32:22;9.20;99.90
17726;DHT22;8983;53.156;17.960;2023-04-19T10:34:53;9.20;99.90
17726;DHT22;8983;53.156;17.960;2023-04-19T10:37:22;9.30;99.90
17726;DHT22;8983;53.156;17.960;2023-04-19T10:39:51;9.30;99.90
17726;DHT22;8983;53.156;17.960;2023-04-19T10:42:20;9.40;99.90
17726;DHT22;8983;53.156;17.960;2023-04-19T10:47:52;9.40;99.90
17726;DHT22;8983;53.156;17.960;2023-04-19T10:50:22;9.50;99.90
17726;DHT22;8983;53.156;17.960;2023-04-19T10:52:50;9.50;99.90
17726;DHT22;8983;53.156;17.960;2023-04-19T10:55:19;9.50;99.90
17726;DHT22;8983;53.156;17.960;2023-04-19T10:58:03;9.60;99.90
17726;DHT22;8983;53.156;17.960;2023-04-19T11:00:32;9.70;99.90
17726;DHT22;8983;53.156;17.960;2023-04-19T11:06:17;9.80;99.90
17726;DHT22;8983;53.156;17.960;2023-04-19T11:08:48;9.80;99.90
17726;DHT22;8983;53.156;17.960;2023-04-19T11:11:16;9.90;99.90
17726;DHT22;8983;53.156;17.960;2023-04-19T11:13:46;9.80;99.90
17726;DHT22;8983;53.156;17.960;2023-04-19T11:16:14;9.80;99.90
17726;DHT22;8983;53.156;17.960;2023-04-19T11:18:45;9.70;99.90
17726;DHT22;8983;53.156;17.960;2023-04-19T11:21:13;9.70;99.90
17726;DHT22;8983;53.156;17.960;2023-04-19T11:23:43;9.60;99.90
17726;DHT22;8983;53.156;17.960;2023-04-19T11:26:13;9.60;99.90
17726;DHT22;8983;53.156;17.960;2023-04-19T11:28:43;9.50;99.90
17726;DHT22;8983;53.156;17.960;2023-04-19T11:31:11;9.40;99.90
17726;DHT22;8983;53.156;17.960;2023-04-19T11:33:40;9.40;99.90
17726;DHT22;8983;53.156;17.960;2023-04-19T11:36:11;9.40;99.90
17726;DHT22;8983;53.156;17.960;2023-04-19T11:38:39;9.30;99.90
17726;DHT22;8983;53.156;17.960;2023-04-19T11:41:09;9.30;99.90
17726;DHT22;8983;53.156;17.960;2023-04-19T11:43:37;9.30;99.90
17726;DHT22;8983;53.156;17.960;2023-04-19T11:46:08;9.30;99.90
17726;DHT22;8983;53.156;17.960;2023-04-19T11:48:37;9.30;99.90
17726;DHT22;8983;53.156;17.960;2023-04-19T11:51:05;9.20;99.90
17726;DHT22;8983;53.156;17.960;2023-04-19T11:53:33;9.10;99.90
17726;DHT22;8983;53.156;17.960;2023-04-19T11:56:04;9.10;99.90
17726;DHT22;8983;53.156;17.960;2023-04-19T11:58:37;9.10;99.90
17726;DHT22;8983;53.156;17.960;2023-04-19T12:01:07;9.00;99.90
17726;DHT22;8983;53.156;17.960;2023-04-19T12:03:39;9.10;99.90
17726;DHT22;8983;53.156;17.960;2023-04-19T12:06:13;9.00;99.90
17726;DHT22;8983;53.156;17.960;2023-04-19T12:08:44;9.00;99.90
17726;DHT22;8983;53.156;17.960;2023-04-19T12:11:13;9.00;99.90
17726;DHT22;8983;53.156;17.960;2023-04-19T12:13:43;9.00;99.90
17726;DHT22;8983;53.156;17.960;2023-04-19T12:16:12;9.10;99.90
17726;DHT22;8983;53.156;17.960;2023-04-19T12:18:44;9.20;99.90
17726;DHT22;8983;53.156;17.960;2023-04-19T12:21:27;9.10;99.90
17726;DHT22;8983;53.156;17.960;2023-04-19T12:23:58;9.10;99.90
17726;DHT22;8983;53.156;17.960;2023-04-19T12:26:28;9.10;99.90
17726;DHT22;8983;53.156;17.960;2023-04-19T12:28:59;9.10;99.90
17726;DHT22;8983;53.156;17.960;2023-04-19T12:31:29;9.10;99.90
17726;DHT22;8983;53.156;17.960;2023-04-19T12:33:59;9.10;99.90
17726;DHT22;8983;53.156;17.960;2023-04-19T12:36:27;9.00;99.90
17726;DHT22;8983;53.156;17.960;2023-04-19T12:38:56;9.00;99.90
17726;DHT22;8983;53.156;17.960;2023-04-19T12:41:24;9.00;99.90
17726;DHT22;8983;53.156;17.960;2023-04-19T12:43:52;9.10;99.90
17726;DHT22;8983;53.156;17.960;2023-04-19T12:46:22;9.10;99.90
17726;DHT22;8983;53.156;17.960;2023-04-19T12:48:50;9.10;99.90
17726;DHT22;8983;53.156;17.960;2023-04-19T12:51:18;9.10;99.90
17726;DHT22;8983;53.156;17.960;2023-04-19T12:53:47;9.10;99.90
17726;DHT22;8983;53.156;17.960;2023-04-19T12:56:16;9.20;99.90
17726;DHT22;8983;53.156;17.960;2023-04-19T12:58:44;9.20;99.90
17726;DHT22;8983;53.156;17.960;2023-04-19T13:01:12;9.30;99.90
17726;DHT22;8983;53.156;17.960;2023-04-19T13:03:41;9.30;99.90
17726;DHT22;8983;53.156;17.960;2023-04-19T13:06:10;9.40;99.90
17726;DHT22;8983;53.156;17.960;2023-04-19T13:08:40;9.40;99.90
17726;DHT22;8983;53.156;17.960;2023-04-19T13:11:14;9.40;99.90
17726;DHT22;8983;53.156;17.960;2023-04-19T13:13:43;9.30;99.90
17726;DHT22;8983;53.156;17.960;2023-04-19T13:16:11;9.40;99.90
17726;DHT22;8983;53.156;17.960;2023-04-19T13:18:39;9.30;99.90
17726;DHT22;8983;53.156;17.960;2023-04-19T13:21:08;9.30;99.90
17726;DHT22;8983;53.156;17.960;2023-04-19T13:23:37;9.30;99.90
17726;DHT22;8983;53.156;17.960;2023-04-19T13:26:05;9.30;99.90
17726;DHT22;8983;53.156;17.960;2023-04-19T13:28:33;9.40;99.90
17726;DHT22;8983;53.156;17.960;2023-04-19T13:31:03;9.40;99.90
17726;DHT22;8983;53.156;17.960;2023-04-19T13:33:31;9.40;99.90
17726;DHT22;8983;53.156;17.960;2023-04-19T13:35:59;9.40;99.90
17726;DHT22;8983;53.156;17.960;2023-04-19T13:38:29;9.40;99.90
17726;DHT22;8983;53.156;17.960;2023-04-19T13:40:58;9.40;99.90
17726;DHT22;8983;53.156;17.960;2023-04-19T13:43:26;9.30;99.90
17726;DHT22;8983;53.156;17.960;2023-04-19T13:45:54;9.30;99.90
17726;DHT22;8983;53.156;17.960;2023-04-19T13:48:22;9.30;99.90
17726;DHT22;8983;53.156;17.960;2023-04-19T13:50:53;9.40;99.90
17726;DHT22;8983;53.156;17.960;2023-04-19T13:53:22;9.50;99.90
17726;DHT22;8983;53.156;17.960;2023-04-19T13:55:54;9.50;99.90
17726;DHT22;8983;53.156;17.960;2023-04-19T13:58:22;9.60;99.90
17726;DHT22;8983;53.156;17.960;2023-04-19T14:00:52;9.60;99.90
17726;DHT22;8983;53.156;17.960;2023-04-19T14:03:21;9.70;99.90
17726;DHT22;8983;53.156;17.960;2023-04-19T14:05:49;9.70;99.90
17726;DHT22;8983;53.156;17.960;2023-04-19T14:08:17;9.70;99.90
17726;DHT22;8983;53.156;17.960;2023-04-19T14:10:47;9.80;99.90
17726;DHT22;8983;53.156;17.960;2023-04-19T14:13:17;9.80;99.90
17726;DHT22;8983;53.156;17.960;2023-04-19T14:15:45;9.80;99.90
17726;DHT22;8983;53.156;17.960;2023-04-19T14:18:13;9.80;99.90
17726;DHT22;8983;53.156;17.960;2023-04-19T14:20:41;9.80;99.90
17726;DHT22;8983;53.156;17.960;2023-04-19T14:23:09;9.80;99.90
17726;DHT22;8983;53.156;17.960;2023-04-19T14:25:37;9.90;99.90
17726;DHT22;8983;53.156;17.960;2023-04-19T14:28:05;9.90;99.90
17726;DHT22;8983;53.156;17.960;2023-04-19T14:30:35;9.90;99.90
17726;DHT22;8983;53.156;17.960;2023-04-19T14:33:03;9.90;99.90
17726;DHT22;8983;53.156;17.960;2023-04-19T14:35:31;9.90;99.90
17726;DHT22;8983;53.156;17.960;2023-04-19T14:37:59;9.90;99.90
17726;DHT22;8983;53.156;17.960;2023-04-19T14:40:27;9.80;99.90
17726;DHT22;8983;53.156;17.960;2023-04-19T14:42:55;9.80;99.90
17726;DHT22;8983;53.156;17.960;2023-04-19T14:45:23;9.80;99.90
17726;DHT22;8983;53.156;17.960;2023-04-19T14:47:53;9.80;99.90
17726;DHT22;8983;53.156;17.960;2023-04-19T14:50:21;9.70;99.90
17726;DHT22;8983;53.156;17.960;2023-04-19T14:52:49;9.80;99.90
17726;DHT22;8983;53.156;17.960;2023-04-19T14:55:17;9.70;99.90
17726;DHT22;8983;53.156;17.960;2023-04-19T14:57:45;9.70;99.90
17726;DHT22;8983;53.156;17.960;2023-04-19T15:00:14;9.70;99.90
17726;DHT22;8983;53.156;17.960;2023-04-19T15:02:42;9.70;99.90
17726;DHT22;8983;53.156;17.960;2023-04-19T15:05:11;9.70;99.90
17726;DHT22;8983;53.156;17.960;2023-04-19T15:07:40;9.70;99.90
17726;DHT22;8983;53.156;17.960;2023-04-19T15:10:09;9.70;99.90
17726;DHT22;8983;53.156;17.960;2023-04-19T15:12:37;9.70;99.90
17726;DHT22;8983;53.156;17.960;2023-04-19T15:15:06;9.70;99.90
17726;DHT22;8983;53.156;17.960;2023-04-19T15:17:34;9.70;99.90
17726;DHT22;8983;53.156;17.960;2023-04-19T15:20:03;9.70;99.90
17726;DHT22;8983;53.156;17.960;2023-04-19T15:22:33;9.70;99.90
17726;DHT22;8983;53.156;17.960;2023-04-19T15:25:01;9.70;99.90
17726;DHT22;8983;53.156;17.960;2023-04-19T15:27:29;9.70;99.90
17726;DHT22;8983;53.156;17.960;2023-04-19T15:29:57;9.70;99.90
17726;DHT22;8983;53.156;17.960;2023-04-19T15:32:26;9.80;99.90
17726;DHT22;8983;53.156;17.960;2023-04-19T15:34:56;9.80;99.90
17726;DHT22;8983;53.156;17.960;2023-04-19T15:37:24;9.90;99.90
17726;DHT22;8983;53.156;17.960;2023-04-19T15:39:54;9.80;99.90
17726;DHT22;8983;53.156;17.960;2023-04-19T15:42:22;9.90;99.90
17726;DHT22;8983;53.156;17.960;2023-04-19T15:44:50;9.90;99.90
17726;DHT22;8983;53.156;17.960;2023-04-19T15:47:18;9.90;99.90
17726;DHT22;8983;53.156;17.960;2023-04-19T15:49:46;10.00;99.90
17726;DHT22;8983;53.156;17.960;2023-04-19T15:52:15;10.00;99.90
17726;DHT22;8983;53.156;17.960;2023-04-19T15:54:44;10.00;99.90
17726;DHT22;8983;53.156;17.960;2023-04-19T15:57:14;10.00;99.90
17726;DHT22;8983;53.156;17.960;2023-04-19T15:59:42;10.10;99.90
17726;DHT22;8983;53.156;17.960;2023-04-19T16:02:10;10.10;99.90
17726;DHT22;8983;53.156;17.960;2023-04-19T16:04:38;10.00;99.90
17726;DHT22;8983;53.156;17.960;2023-04-19T16:07:07;10.00;99.90